Time;durP1;ratioP1;P1;durP2;ratioP2;P2;SDS_P1;SDS_P2;PMS_P1;PMS_P2;Temp;Humidity;BMP_temperature;BMP_pressure;BME280_temperature;BME280_humidity;BME280_pressure;Samples;Min_cycle;Max_cycle;Signal;HPM_P1;HPM_P2
2022/02/12 00:00:26;;;;;;;18.92;14.20;;;;;;;2.15;90.24;99839.48;1778680;77;20967;-75
2022/02/12 00:02:55;;;;;;;20.88;15.32;;;;;;;2.15;90.58;99841.31;1827842;77;21130;-74
2022/02/12 00:05:24;;;;;;;16.55;12.85;;;;;;;2.19;90.87;99834.11;1779450;80;21453;-74
2022/02/12 00:07:53;;;;;;;14.75;10.75;;;;;;;2.21;91.03;99829.91;1779158;80;20932;-73
2022/02/12 00:10:20;;;;;;;20.55;12.15;;;;;;;2.12;91.39;99829.23;1791818;79;20994;-73
2022/02/12 00:12:47;;;;;;;16.35;11.40;;;;;;;2.05;91.62;99831.53;1793170;79;21083;-73
2022/02/12 00:15:13;;;;;;;14.00;10.53;;;;;;;2.01;92.10;99838.23;1795967;78;21514;-76
2022/02/12 00:17:43;;;;;;;11.88;10.08;;;;;;;1.95;92.72;99829.20;1786210;79;21605;-79
2022/02/12 00:20:10;;;;;;;13.93;8.88;;;;;;;1.95;92.96;99829.70;1769238;80;21015;-75
2022/02/12 00:22:37;;;;;;;12.60;9.00;;;;;;;1.95;93.25;99821.75;1804884;79;21020;-76
2022/02/12 00:25:04;;;;;;;8.78;7.87;;;;;;;1.89;93.40;99823.33;1809269;79;21000;-73
2022/02/12 00:27:30;;;;;;;12.93;10.10;;;;;;;1.86;93.65;99825.05;1791103;79;21006;-74
2022/02/12 00:29:57;;;;;;;8.38;6.83;;;;;;;1.81;94.06;99822.14;1810373;79;20992;-72
2022/02/12 00:32:23;;;;;;;12.40;8.90;;;;;;;1.72;94.80;99820.64;1765341;79;21012;-71
2022/02/12 00:34:50;;;;;;;11.97;9.55;;;;;;;1.66;95.05;99823.53;1790910;79;20977;-75
2022/02/12 00:37:18;;;;;;;11.97;8.23;;;;;;;1.68;95.57;99820.67;1809376;78;21011;-74
2022/02/12 00:39:44;;;;;;;12.98;11.15;;;;;;;1.69;95.80;99814.37;1803218;78;21109;-75
2022/02/12 00:42:11;;;;;;;12.28;10.48;;;;;;;1.68;96.06;99808.75;1785772;79;21004;-73
2022/02/12 00:44:39;;;;;;;12.10;9.28;;;;;;;1.64;96.35;99802.19;1786028;79;21492;-75
2022/02/12 00:47:08;;;;;;;11.78;9.65;;;;;;;1.61;96.69;99796.77;1792622;79;20985;-77
2022/02/12 00:49:36;;;;;;;14.33;12.28;;;;;;;1.60;96.93;99791.15;1787937;79;21590;-75
2022/02/12 00:52:03;;;;;;;16.70;14.85;;;;;;;1.57;97.15;99790.21;1772128;81;21074;-70
2022/02/12 00:54:32;;;;;;;11.28;10.05;;;;;;;1.54;97.67;99785.77;1771925;81;21007;-77
2022/02/12 00:57:00;;;;;;;13.58;12.15;;;;;;;1.54;98.06;99785.77;1743364;81;21067;-74
2022/02/12 00:59:26;;;;;;;13.90;11.60;;;;;;;1.54;98.26;99783.12;1771660;79;21047;-77
2022/02/12 01:01:53;;;;;;;14.90;12.88;;;;;;;1.57;98.54;99774.81;1745588;81;21101;-75
2022/02/12 01:04:19;;;;;;;13.65;12.23;;;;;;;1.57;98.80;99766.36;1772136;81;21020;-75
2022/02/12 01:06:46;;;;;;;11.93;10.63;;;;;;;1.58;98.91;99768.51;1765112;81;21647;-74
2022/02/12 01:09:12;;;;;;;12.82;9.40;;;;;;;1.54;99.40;99753.47;1745114;81;21027;-73
2022/02/12 01:11:41;;;;;;;10.55;8.45;;;;;;;1.52;99.42;99752.86;1801042;79;20987;-74
2022/02/12 01:14:07;;;;;;;9.00;8.13;;;;;;;1.48;100.00;99750.27;1801746;79;20996;-76
2022/02/12 01:16:35;;;;;;;8.70;7.80;;;;;;;1.43;100.00;99746.05;1806079;78;21544;-73
2022/02/12 01:19:01;;;;;;;10.08;9.00;;;;;;;1.38;100.00;99740.49;1798990;79;21054;-69
2022/02/12 01:21:28;;;;;;;9.68;8.00;;;;;;;1.38;100.00;99742.32;1737506;82;21020;-69
2022/02/12 01:23:55;;;;;;;8.20;6.80;;;;;;;1.39;100.00;99736.81;1801460;79;20967;-69
2022/02/12 01:26:22;;;;;;;7.35;6.47;;;;;;;1.40;100.00;99729.18;1798983;79;21031;-83
2022/02/12 01:28:49;;;;;;;9.35;7.62;;;;;;;1.41;100.00;99722.05;1800726;79;21068;-81
2022/02/12 01:31:15;;;;;;;10.40;9.20;;;;;;;1.42;100.00;99725.03;1716087;82;21025;-83
2022/02/12 01:33:42;;;;;;;7.50;6.72;;;;;;;1.39;100.00;99720.13;1764387;79;20912;-73
2022/02/12 01:36:08;;;;;;;9.15;8.18;;;;;;;1.40;100.00;99730.51;1799362;78;20973;-76
2022/02/12 01:38:35;;;;;;;7.58;6.05;;;;;;;1.40;100.00;99731.01;1800383;79;20995;-77
2022/02/12 01:41:01;;;;;;;5.83;5.05;;;;;;;1.39;100.00;99738.67;1809246;78;21043;-77
2022/02/12 01:43:32;;;;;;;6.65;5.45;;;;;;;1.42;100.00;99742.25;1805412;79;21474;-78
2022/02/12 01:45:58;;;;;;;6.85;6.15;;;;;;;1.42;100.00;99739.60;1789523;79;21473;-75
2022/02/12 01:48:27;;;;;;;6.17;5.58;;;;;;;1.39;100.00;99747.94;1808192;78;20956;-77
2022/02/12 01:50:54;;;;;;;5.60;4.80;;;;;;;1.39;100.00;99735.48;1789228;79;21005;-81
2022/02/12 01:53:23;;;;;;;5.37;4.17;;;;;;;1.39;100.00;99730.72;1810271;79;21573;-76
2022/02/12 01:55:49;;;;;;;4.15;3.85;;;;;;;1.37;100.00;99742.82;1809311;79;20929;-76
2022/02/12 01:58:16;;;;;;;3.95;3.65;;;;;;;1.36;100.00;99742.50;1809353;79;20936;-77
2022/02/12 02:00:42;;;;;;;4.35;3.92;;;;;;;1.37;100.00;99751.27;1752282;80;21046;-79
2022/02/12 02:03:09;;;;;;;5.85;5.37;;;;;;;1.36;100.00;99748.30;1779186;80;21037;-77
2022/02/12 02:05:36;;;;;;;5.47;4.30;;;;;;;1.34;100.00;99735.27;1779154;80;21139;-76
2022/02/12 02:08:03;;;;;;;4.12;3.72;;;;;;;1.35;100.00;99739.52;1779363;80;21756;-76
2022/02/12 02:10:30;;;;;;;4.33;3.30;;;;;;;1.35;100.00;99733.41;1748587;80;20964;-77
2022/02/12 02:12:57;;;;;;;4.25;3.95;;;;;;;1.34;100.00;99739.73;1779986;79;21059;-78
2022/02/12 02:15:24;;;;;;;3.83;3.47;;;;;;;1.35;100.00;99746.15;1779325;80;21602;-77
2022/02/12 02:17:52;;;;;;;4.40;3.22;;;;;;;1.26;100.00;99759.20;1779606;80;21152;-78
2022/02/12 02:20:19;;;;;;;4.55;4.15;;;;;;;1.30;100.00;99756.49;1768525;79;21011;-78
2022/02/12 02:22:56;;;;;;;2.98;2.77;;;;;;;1.37;100.00;99744.64;1811221;79;21616;-77
2022/02/12 02:25:23;;;;;;;3.15;2.85;;;;;;;1.35;100.00;99742.17;1811433;78;21008;-76
2022/02/12 02:27:50;;;;;;;3.98;3.52;;;;;;;1.37;100.00;99754.74;1785547;78;21505;-78
2022/02/12 02:30:21;;;;;;;4.25;3.85;;;;;;;1.37;100.00;99756.57;1779332;80;21769;-77
2022/02/12 02:32:48;;;;;;;2.75;2.55;;;;;;;1.33;100.00;99764.59;1761420;80;21034;-77
2022/02/12 02:35:19;;;;;;;4.08;3.17;;;;;;;1.30;100.00;99759.14;1783149;79;20932;-78
2022/02/12 02:37:46;;;;;;;3.20;3.00;;;;;;;1.29;100.00;99763.65;1811100;79;21035;-80
2022/02/12 02:40:20;;;;;;;3.62;3.33;;;;;;;1.29;100.00;99768.95;1787005;79;21078;-81
2022/02/12 02:42:48;;;;;;;2.67;2.47;;;;;;;1.33;100.00;99777.83;1789048;79;21088;-76
2022/02/12 02:45:15;;;;;;;3.17;2.98;;;;;;;1.34;100.00;99775.50;1793035;79;20932;-77
2022/02/12 02:47:42;;;;;;;3.05;2.75;;;;;;;1.31;100.00;99768.73;1765845;79;21035;-81
2022/02/12 02:56:00;;;;;;;2.20;2.10;;;;;;;1.26;100.00;99785.20;1779146;80;21068;-77
2022/02/12 02:58:42;;;;;;;2.08;1.98;;;;;;;1.29;100.00;99786.67;1779817;79;20936;-76
2022/02/12 03:01:15;;;;;;;1.57;1.47;;;;;;;1.31;100.00;99789.93;1808464;79;21011;-80
2022/02/12 03:03:44;;;;;;;1.90;1.80;;;;;;;1.31;100.00;99793.91;1811239;79;21023;-82
2022/02/12 03:06:12;;;;;;;1.83;1.73;;;;;;;1.34;100.00;99794.05;1791931;79;21521;-79
2022/02/12 03:08:38;;;;;;;2.12;1.92;;;;;;;1.34;100.00;99794.05;1810410;79;21102;-80
2022/02/12 03:11:05;;;;;;;1.67;1.57;;;;;;;1.29;100.00;99804.71;1766541;79;21027;-79
2022/02/12 03:13:32;;;;;;;1.92;1.82;;;;;;;1.33;100.00;99808.30;1771680;80;21488;-78
2022/02/12 03:15:59;;;;;;;2.30;2.12;;;;;;;1.34;100.00;99814.74;1761631;80;21008;-79
2022/02/12 03:18:25;;;;;;;2.02;1.92;;;;;;;1.37;100.00;99818.84;1762854;80;21515;-79
2022/02/12 03:20:52;;;;;;;2.70;2.33;;;;;;;1.37;100.00;99830.26;1779112;80;21083;-80
2022/02/12 03:23:18;;;;;;;3.27;2.07;;;;;;;1.35;100.00;99836.73;1761479;80;21010;-80
2022/02/12 03:25:45;;;;;;;1.92;1.82;;;;;;;1.28;100.00;99841.48;1761515;80;21637;-81
2022/02/12 03:28:12;;;;;;;1.87;1.77;;;;;;;1.24;100.00;99849.48;1779722;79;21035;-83
2022/02/12 03:30:46;;;;;;;1.60;1.50;;;;;;;1.21;100.00;99855.63;1779302;80;21051;-81
2022/02/12 03:33:12;;;;;;;1.85;1.75;;;;;;;1.22;100.00;99854.63;1762044;80;21027;-81
2022/02/12 03:35:39;;;;;;;1.80;1.70;;;;;;;1.22;100.00;99864.73;1781303;79;20932;-81
2022/02/12 03:38:27;;;;;;;1.60;1.50;;;;;;;1.25;100.00;99868.82;1792202;79;21007;-78
2022/02/12 03:41:02;;;;;;;2.77;2.57;;;;;;;1.31;100.00;99873.39;1803896;78;21214;-76
2022/02/12 03:43:30;;;;;;;1.67;1.57;;;;;;;1.32;100.00;99877.69;1771635;81;21471;-77
2022/02/12 03:45:59;;;;;;;1.62;1.55;;;;;;;1.30;100.00;99884.98;1801752;79;21493;-77
2022/02/12 03:48:26;;;;;;;1.70;1.60;;;;;;;1.29;100.00;99888.66;1766271;81;21065;-78
2022/02/12 03:50:53;;;;;;;2.93;2.67;;;;;;;1.23;100.00;99892.88;1765150;79;20928;-78
2022/02/12 03:53:20;;;;;;;2.50;1.53;;;;;;;1.20;100.00;99893.75;1801549;79;20992;-78
2022/02/12 03:55:47;;;;;;;1.57;1.47;;;;;;;1.21;100.00;99903.31;1773068;79;21077;-78
2022/02/12 03:58:17;;;;;;;1.90;1.77;;;;;;;1.24;100.00;99897.67;1757343;79;21511;-78
2022/02/12 04:00:45;;;;;;;1.27;1.23;;;;;;;1.27;100.00;99907.88;1786924;79;20964;-83
2022/02/12 04:03:12;;;;;;;1.70;1.60;;;;;;;1.28;100.00;99914.33;1745529;81;21586;-79
2022/02/12 04:05:38;;;;;;;1.52;1.42;;;;;;;1.29;100.00;99928.41;1801111;79;21493;-80
2022/02/12 04:08:05;;;;;;;1.45;1.35;;;;;;;1.27;100.00;99933.05;1786767;79;21063;-80
2022/02/12 04:10:35;;;;;;;2.45;2.17;;;;;;;1.23;100.00;99935.26;1771617;81;21096;-80
2022/02/12 04:13:01;;;;;;;1.45;1.35;;;;;;;1.21;100.00;99945.20;1786598;79;20951;-80
2022/02/12 04:15:29;;;;;;;1.42;1.32;;;;;;;1.18;100.00;99945.58;1769832;80;21030;-81
2022/02/12 04:17:55;;;;;;;1.60;1.50;;;;;;;1.24;100.00;99951.98;1756607;81;21035;-81
2022/02/12 04:20:23;;;;;;;1.60;1.50;;;;;;;1.29;100.00;99963.67;1757273;80;21519;-80
2022/02/12 04:22:50;;;;;;;1.60;1.50;;;;;;;1.27;100.00;99969.64;1756494;81;21519;-80
2022/02/12 04:25:19;;;;;;;1.00;1.00;;;;;;;1.23;100.00;99976.81;1756641;81;20935;-77
2022/02/12 04:27:45;;;;;;;1.30;1.25;;;;;;;1.20;100.00;99977.98;1757225;80;21001;-75
2022/02/12 04:30:12;;;;;;;1.27;1.20;;;;;;;1.22;100.00;99981.79;1775020;79;21623;-76
2022/02/12 04:32:39;;;;;;;1.30;1.20;;;;;;;1.19;100.00;99982.98;1742476;81;21579;-76
2022/02/12 04:35:07;;;;;;;1.15;1.15;;;;;;;1.21;100.00;99988.09;1770221;81;21040;-81
2022/02/12 04:37:34;;;;;;;1.40;1.30;;;;;;;1.19;100.00;99994.08;1756503;81;20959;-81
2022/02/12 04:40:00;;;;;;;1.43;1.33;;;;;;;1.16;100.00;99997.08;1793355;78;20959;-85
2022/02/12 04:42:27;;;;;;;1.40;1.30;;;;;;;1.17;100.00;99998.23;1725729;81;21010;-82
2022/02/12 04:44:53;;;;;;;1.47;1.37;;;;;;;1.21;100.00;100006.63;1770361;80;21241;-82
2022/02/12 04:47:22;;;;;;;1.67;1.57;;;;;;;1.23;100.00;100006.78;1756993;81;21175;-83
2022/02/12 04:49:49;;;;;;;1.50;1.40;;;;;;;1.22;100.00;100017.05;1784166;79;20959;-83
2022/02/12 04:52:18;;;;;;;1.47;1.37;;;;;;;1.22;100.00;100016.22;1801619;79;21042;-83
2022/02/12 04:54:45;;;;;;;3.42;1.82;;;;;;;1.18;100.00;100019.75;1788045;79;21094;-84
2022/02/12 04:57:12;;;;;;;1.27;1.17;;;;;;;1.16;100.00;100028.36;1787874;79;20984;-85
2022/02/12 04:59:39;;;;;;;2.20;2.00;;;;;;;1.15;100.00;100041.81;1801002;79;20995;-83
2022/02/12 05:02:05;;;;;;;3.83;1.90;;;;;;;1.16;100.00;100045.58;1771917;81;21010;-84
2022/02/12 05:04:34;;;;;;;2.70;2.50;;;;;;;1.12;100.00;100051.42;1801392;79;20991;-84
2022/02/12 05:07:00;;;;;;;2.67;2.00;;;;;;;1.09;100.00;100058.41;1801637;79;21059;-83
2022/02/12 05:09:27;;;;;;;2.27;2.08;;;;;;;1.08;100.00;100074.80;1799958;79;21480;-83
2022/02/12 05:11:55;;;;;;;3.23;2.93;;;;;;;1.10;100.00;100082.08;1746047;81;21469;-84
2022/02/12 05:14:21;;;;;;;2.47;2.13;;;;;;;1.11;100.00;100076.26;1788222;79;21245;-83
2022/02/12 05:16:48;;;;;;;2.20;2.10;;;;;;;1.08;100.00;100081.92;1745833;81;21069;-83
2022/02/12 05:19:14;;;;;;;3.07;2.77;;;;;;;1.11;100.00;100090.33;1776223;80;21058;-84
2022/02/12 05:21:42;;;;;;;2.60;2.20;;;;;;;1.11;100.00;100098.27;1756645;81;21211;-83
2022/02/12 05:24:08;;;;;;;4.53;3.37;;;;;;;1.12;100.00;100105.72;1732359;79;21481;-83
2022/02/12 05:26:34;;;;;;;4.90;4.40;;;;;;;1.13;100.00;100102.90;1800282;79;20983;-82
2022/02/12 05:29:02;;;;;;;3.50;3.20;;;;;;;1.16;100.00;100107.83;1800540;79;20916;-84
2022/02/12 05:31:29;;;;;;;2.98;2.27;;;;;;;1.19;100.00;100131.33;1771736;81;21471;-83
2022/02/12 05:33:55;;;;;;;3.17;2.45;;;;;;;1.16;100.00;100129.02;1788143;79;21594;-76
2022/02/12 05:36:21;;;;;;;4.67;2.37;;;;;;;1.19;100.00;100135.31;1801722;79;21209;-83
2022/02/12 05:38:48;;;;;;;1.97;1.87;;;;;;;1.18;100.00;100139.45;1769824;81;22178;-83
2022/02/12 05:41:15;;;;;;;2.67;2.47;;;;;;;1.15;100.00;100142.47;1757531;80;21034;-83
2022/02/12 05:43:41;;;;;;;3.30;3.03;;;;;;;1.13;100.00;100141.81;1695524;83;20967;-85
2022/02/12 05:46:08;;;;;;;4.35;2.80;;;;;;;1.15;100.00;100145.91;1770217;81;20983;-87
2022/02/12 05:48:34;;;;;;;2.07;1.93;;;;;;;1.15;100.00;100164.98;1770304;81;21124;-86
2022/02/12 05:51:01;;;;;;;3.58;2.00;;;;;;;1.15;100.00;100168.42;1732518;81;21002;-83
2022/02/12 05:53:27;;;;;;;1.85;1.75;;;;;;;1.17;100.00;100165.61;1769926;80;21090;-85
2022/02/12 05:55:54;;;;;;;1.70;1.60;;;;;;;1.20;100.00;100167.92;1770280;79;21102;-87
2022/02/12 05:58:20;;;;;;;1.37;1.27;;;;;;;1.25;100.00;100174.31;1770067;80;21023;-85
2022/02/12 06:00:48;;;;;;;1.82;1.50;;;;;;;1.26;100.00;100179.94;1771025;79;21537;-87
2022/02/12 06:03:15;;;;;;;1.80;1.70;;;;;;;1.27;100.00;100184.74;1769987;81;21082;-82
2022/02/12 06:05:42;;;;;;;1.70;1.60;;;;;;;1.28;100.00;100193.02;1710112;83;20963;-83
2022/02/12 06:08:09;;;;;;;1.47;1.40;;;;;;;1.26;100.00;100207.76;1756739;81;21305;-81
2022/02/12 06:10:36;;;;;;;2.50;1.82;;;;;;;1.28;100.00;100210.24;1779713;79;21007;-82
2022/02/12 06:13:02;;;;;;;1.67;1.57;;;;;;;1.29;100.00;100210.57;1787975;79;21155;-82
2022/02/12 06:15:35;;;;;;;2.05;1.95;;;;;;;1.30;100.00;100214.84;1801532;79;21003;-84
2022/02/12 06:18:00;;;;;;;1.60;1.50;;;;;;;1.32;100.00;100223.45;1801425;79;21132;-80
2022/02/12 06:20:26;;;;;;;4.70;1.90;;;;;;;1.31;100.00;100226.60;1784952;79;21714;-76
2022/02/12 06:22:54;;;;;;;3.73;1.83;;;;;;;1.30;100.00;100236.05;1787572;79;21073;-74
2022/02/12 06:25:21;;;;;;;2.20;1.80;;;;;;;1.26;100.00;100246.67;1801656;79;21575;-78
2022/02/12 06:27:47;;;;;;;2.77;2.37;;;;;;;1.20;100.00;100238.13;1801192;79;21025;-81
2022/02/12 06:30:14;;;;;;;1.80;1.70;;;;;;;1.20;100.00;100244.22;1787500;79;21477;-84
2022/02/12 06:32:42;;;;;;;1.95;1.57;;;;;;;1.26;100.00;100237.41;1774411;81;21355;-86
2022/02/12 06:35:09;;;;;;;2.40;1.90;;;;;;;1.33;100.00;100248.13;1803244;79;20960;-86
2022/02/12 06:37:35;;;;;;;8.90;5.05;;;;;;;1.35;100.00;100249.59;1742517;81;21075;-87
2022/02/12 06:40:02;;;;;;;2.70;2.50;;;;;;;1.37;100.00;100263.50;1783073;78;20983;-86
2022/02/12 06:42:29;;;;;;;2.47;2.27;;;;;;;1.39;100.00;100259.36;1771054;81;21014;-78
2022/02/12 06:44:55;;;;;;;4.17;2.90;;;;;;;1.40;100.00;100264.95;1786993;79;20987;-93
2022/02/12 06:47:22;;;;;;;2.47;2.27;;;;;;;1.40;100.00;100267.61;1770439;80;21022;-89
2022/02/12 06:49:48;;;;;;;2.10;2.00;;;;;;;1.39;100.00;100272.61;1770133;80;21074;-85
2022/02/12 06:52:15;;;;;;;1.37;1.27;;;;;;;1.40;100.00;100269.76;1757044;79;21500;-84
2022/02/12 06:54:41;;;;;;;1.60;1.50;;;;;;;1.41;100.00;100283.84;1741117;82;21055;-83
2022/02/12 06:57:08;;;;;;;1.77;1.67;;;;;;;1.41;100.00;100282.52;1716261;82;22258;-85
2022/02/12 06:59:36;;;;;;;1.70;1.60;;;;;;;1.38;100.00;100294.80;1716109;82;21050;-82
2022/02/12 07:02:03;;;;;;;1.27;1.20;;;;;;;1.35;100.00;100306.56;1788391;79;21009;-80
2022/02/12 07:04:30;;;;;;;1.63;1.53;;;;;;;1.36;100.00;100315.34;1740855;80;20932;-81
2022/02/12 07:06:56;;;;;;;1.67;1.57;;;;;;;1.36;100.00;100321.47;1770502;81;20892;-80
2022/02/12 07:09:23;;;;;;;1.50;1.40;;;;;;;1.39;100.00;100323.75;1686228;83;21445;-79
2022/02/12 07:11:49;;;;;;;1.57;1.47;;;;;;;1.43;100.00;100317.63;1757400;81;21015;-79
2022/02/12 07:14:17;;;;;;;1.37;1.30;;;;;;;1.46;100.00;100331.34;1797520;79;21125;-82
2022/02/12 07:16:44;;;;;;;1.45;1.35;;;;;;;1.46;100.00;100326.54;1771579;81;20950;-79
2022/02/12 07:19:11;;;;;;;1.57;1.47;;;;;;;1.45;100.00;100331.02;1787942;79;20963;-82
2022/02/12 07:21:37;;;;;;;1.73;1.60;;;;;;;1.47;100.00;100332.17;1799794;79;20951;-79
2022/02/12 07:24:05;;;;;;;2.20;1.70;;;;;;;1.50;100.00;100343.73;1713673;82;21019;-80
2022/02/12 07:26:33;;;;;;;1.45;1.35;;;;;;;1.53;100.00;100354.02;1763023;79;20986;-82
2022/02/12 07:29:01;;;;;;;1.35;1.25;;;;;;;1.57;100.00;100366.73;1771968;81;20986;-79
2022/02/12 07:31:27;;;;;;;1.85;1.75;;;;;;;1.59;100.00;100369.19;1776150;78;21066;-83
2022/02/12 07:33:53;;;;;;;1.70;1.60;;;;;;;1.59;100.00;100374.50;1770760;79;20931;-80
2022/02/12 07:36:20;;;;;;;1.87;1.77;;;;;;;1.57;100.00;100375.19;1770148;80;21094;-85
2022/02/12 07:38:48;;;;;;;2.33;2.13;;;;;;;1.61;100.00;100379.13;1770210;80;20997;-84
2022/02/12 07:41:16;;;;;;;1.93;1.70;;;;;;;1.61;100.00;100377.31;1736574;81;20982;-87
2022/02/12 07:43:45;;;;;;;3.20;2.35;;;;;;;1.62;100.00;100384.77;1733331;82;20927;-82
2022/02/12 07:46:12;;;;;;;3.52;2.00;;;;;;;1.63;100.00;100389.08;1712487;82;21115;-85
2022/02/12 07:48:39;;;;;;;2.40;2.20;;;;;;;1.67;100.00;100406.28;1733335;82;21506;-86
2022/02/12 07:51:07;;;;;;;2.60;2.37;;;;;;;1.68;100.00;100404.76;1707011;84;21180;-88
2022/02/12 07:53:34;;;;;;;2.70;2.50;;;;;;;1.67;100.00;100404.95;1704282;84;21025;-87
2022/02/12 07:56:01;;;;;;;2.73;2.53;;;;;;;1.65;100.00;100413.08;1725991;82;20954;-90
2022/02/12 07:58:27;;;;;;;2.50;2.30;;;;;;;1.64;100.00;100421.20;1733364;82;21585;-87
2022/02/12 08:00:54;;;;;;;2.92;2.47;;;;;;;1.61;100.00;100428.18;1754797;81;21060;-85
2022/02/12 08:03:20;;;;;;;2.12;2.02;;;;;;;1.58;100.00;100421.38;1755218;81;21942;-86
2022/02/12 08:05:47;;;;;;;2.93;2.43;;;;;;;1.58;100.00;100428.02;1707617;83;20996;-90
2022/02/12 08:08:13;;;;;;;2.98;2.50;;;;;;;1.58;100.00;100429.34;1748035;81;20967;-88
2022/02/12 08:13:24;;;;;;;2.83;2.27;;;;;;;1.60;100.00;100444.59;1756391;80;21048;-83
2022/02/12 08:15:50;;;;;;;4.23;2.90;;;;;;;1.59;100.00;100442.92;1787913;79;21110;-81
2022/02/12 08:18:17;;;;;;;5.37;4.85;;;;;;;1.54;100.00;100429.36;1768188;79;20963;-87
2022/02/12 08:20:44;;;;;;;7.60;3.67;;;;;;;1.52;100.00;100455.23;1756838;81;20975;-86
2022/02/12 08:23:11;;;;;;;5.90;3.42;;;;;;;1.54;100.00;100457.69;1770987;80;20885;-87
2022/02/12 08:25:37;;;;;;;5.60;4.25;;;;;;;1.56;100.00;100463.16;1788156;79;21007;-85
2022/02/12 08:28:04;;;;;;;3.12;2.75;;;;;;;1.59;100.00;100462.81;1762539;80;21178;-87
2022/02/12 08:30:31;;;;;;;4.23;2.73;;;;;;;1.62;100.00;100469.61;1748135;81;21524;-82
2022/02/12 08:32:59;;;;;;;6.10;3.02;;;;;;;1.64;100.00;100477.70;1767579;80;20893;-82
2022/02/12 08:35:26;;;;;;;4.08;3.65;;;;;;;1.68;100.00;100476.84;1786853;79;20988;-81
2022/02/12 08:37:52;;;;;;;5.42;3.12;;;;;;;1.68;100.00;100479.00;1767817;80;21032;-82
2022/02/12 08:40:18;;;;;;;5.45;3.05;;;;;;;1.72;100.00;100497.57;1724316;83;21129;-78
2022/02/12 08:42:48;;;;;;;3.92;3.52;;;;;;;1.71;100.00;100494.58;1777424;80;20939;-80
2022/02/12 08:45:16;;;;;;;3.47;3.17;;;;;;;1.70;100.00;100502.20;1796235;79;20984;-77
2022/02/12 08:47:47;;;;;;;4.22;3.52;;;;;;;1.70;100.00;100502.20;1781421;79;21550;-79
2022/02/12 08:50:15;;;;;;;5.60;3.52;;;;;;;1.74;100.00;100522.56;1762160;80;21031;-78
2022/02/12 08:52:43;;;;;;;3.30;3.10;;;;;;;1.75;100.00;100521.58;1779489;80;21035;-79
2022/02/12 08:55:18;;;;;;;6.15;3.42;;;;;;;1.75;100.00;100526.88;1780016;79;20998;-79
2022/02/12 08:57:48;;;;;;;4.30;3.50;;;;;;;1.75;100.00;100529.03;1788205;79;20959;-83
2022/02/12 09:00:15;;;;;;;4.92;3.70;;;;;;;1.77;100.00;100530.69;1787395;79;21544;-82
2022/02/12 09:02:43;;;;;;;4.08;3.37;;;;;;;1.75;100.00;100536.16;1811638;79;20913;-78
2022/02/12 09:05:09;;;;;;;3.45;3.12;;;;;;;1.79;100.00;100531.33;1810574;79;21945;-80
2022/02/12 09:07:38;;;;;;;4.20;3.80;;;;;;;1.83;100.00;100540.09;1810430;78;20925;-79
2022/02/12 09:10:10;;;;;;;5.58;3.58;;;;;;;1.83;100.00;100570.59;1809662;79;20999;-87
2022/02/12 09:12:39;;;;;;;4.70;3.52;;;;;;;1.81;100.00;100555.86;1804222;79;21548;-76
2022/02/12 09:15:08;;;;;;;5.22;3.55;;;;;;;1.76;100.00;100568.31;1803076;79;21004;-82
2022/02/12 09:17:35;;;;;;;2.92;2.72;;;;;;;1.74;100.00;100573.78;1793308;79;20997;-80
2022/02/12 09:20:01;;;;;;;7.30;3.42;;;;;;;1.74;100.00;100581.73;1779220;80;21032;-78
2022/02/12 09:22:28;;;;;;;4.50;3.77;;;;;;;1.76;100.00;100576.27;1761896;80;21086;-84
2022/02/12 09:24:54;;;;;;;9.13;4.87;;;;;;;1.79;100.00;100579.06;1761619;80;21595;-81
2022/02/12 09:27:21;;;;;;;5.80;3.87;;;;;;;1.80;100.00;100582.05;1784513;79;21043;-82
2022/02/12 09:29:50;;;;;;;4.10;3.35;;;;;;;1.86;100.00;100594.64;1790374;79;21060;-82
2022/02/12 09:32:18;;;;;;;8.90;3.70;;;;;;;1.90;100.00;100596.77;1790093;79;21054;-84
2022/02/12 09:34:44;;;;;;;6.42;4.00;;;;;;;1.93;100.00;100591.61;1811608;79;21026;-82
2022/02/12 09:37:10;;;;;;;5.35;3.05;;;;;;;1.95;100.00;100606.37;1762534;79;20993;-80
2022/02/12 09:39:37;;;;;;;5.30;3.67;;;;;;;1.93;100.00;100604.88;1810500;78;21568;-83
2022/02/12 09:42:04;;;;;;;4.62;3.52;;;;;;;1.89;100.00;100598.26;1814300;78;21036;-87
2022/02/12 09:44:31;;;;;;;3.50;3.20;;;;;;;1.88;100.00;100593.95;1740190;81;20943;-86
2022/02/12 09:47:45;;;;;;;3.72;3.42;;;;;;;1.88;100.00;100609.86;1763204;81;20968;-85
2022/02/12 09:50:12;;;;;;;7.17;4.15;;;;;;;1.88;100.00;100608.53;1807796;78;21032;-87
2022/02/12 09:52:45;;;;;;;5.05;3.90;;;;;;;1.86;100.00;100611.88;1807709;79;21497;-85
2022/02/12 09:55:08;;;;;;;6.80;4.75;;;;;;;1.83;100.00;100617.00;1795487;79;21817;-85
2022/02/12 09:57:36;;;;;;;5.37;3.83;;;;;;;1.80;100.00;100620.50;1786902;79;21029;-91
2022/02/12 10:00:07;;;;;;;5.92;4.37;;;;;;;1.80;100.00;100621.83;1803052;79;20971;-85
2022/02/12 10:02:33;;;;;;;8.20;4.97;;;;;;;1.82;100.00;100628.64;1765489;79;20969;-86
2022/02/12 10:05:26;;;;;;;4.87;4.12;;;;;;;1.85;100.00;100630.11;1783600;79;20993;-84
2022/02/12 10:08:09;;;;;;;5.20;3.92;;;;;;;1.88;100.00;100637.71;1781618;80;21139;-89
2022/02/12 10:10:36;;;;;;;10.13;5.08;;;;;;;1.92;100.00;100643.03;1782691;79;20951;-92
2022/02/12 10:13:14;;;;;;;6.75;4.33;;;;;;;1.93;100.00;100644.16;1806185;79;20977;-93
2022/02/12 10:15:51;;;;;;;5.87;3.85;;;;;;;1.92;100.00;100640.37;1794812;79;20949;-85
2022/02/12 10:18:20;;;;;;;7.15;3.87;;;;;;;1.87;100.00;100644.84;1785911;79;21051;-90
2022/02/12 10:20:47;;;;;;;6.40;3.83;;;;;;;1.87;100.00;100657.30;1812174;79;21107;-85
2022/02/12 10:23:20;;;;;;;10.98;5.28;;;;;;;1.88;100.00;100649.65;1811208;79;21055;-82
2022/02/12 10:25:51;;;;;;;6.47;4.05;;;;;;;1.91;100.00;100665.24;1781942;80;21500;-86
2022/02/12 10:28:19;;;;;;;6.35;4.22;;;;;;;1.93;100.00;100668.04;1756081;79;21098;-78
2022/02/12 10:30:46;;;;;;;5.50;4.28;;;;;;;1.94;100.00;100676.33;1808513;78;21078;-85
2022/02/12 10:33:15;;;;;;;7.12;3.65;;;;;;;1.97;100.00;100695.05;1787786;79;21058;-81
2022/02/12 10:35:41;;;;;;;8.58;4.45;;;;;;;1.97;99.81;100683.94;1781714;80;21068;-79
2022/02/12 10:38:15;;;;;;;4.53;4.12;;;;;;;1.99;99.87;100682.45;1811771;79;21465;-78
2022/02/12 10:40:41;;;;;;;;;;;;;;;2.01;99.32;100677.33;1813606;78;21000;-81
2022/02/12 10:43:07;;;;;;;5.00;3.80;;;;;;;2.04;98.93;100683.61;1811552;77;20197;-84
2022/02/12 10:45:33;;;;;;;9.73;4.05;;;;;;;2.05;98.32;100693.72;1811658;79;21733;-84
2022/02/12 10:48:03;;;;;;;7.00;3.85;;;;;;;2.07;97.68;100695.69;1760057;80;20936;-82
2022/02/12 10:50:31;;;;;;;4.08;3.60;;;;;;;2.11;97.51;100698.36;1793712;78;21506;-77
2022/02/12 10:53:00;;;;;;;5.58;4.03;;;;;;;2.14;97.20;100698.84;1809356;79;21079;-78
2022/02/12 10:55:35;;;;;;;5.03;4.03;;;;;;;2.16;96.86;100693.34;1809093;78;21533;-80
2022/02/12 10:58:16;;;;;;;5.95;4.08;;;;;;;2.17;96.75;100699.81;1763909;79;21250;-84
2022/02/12 11:00:43;;;;;;;7.80;4.28;;;;;;;2.23;96.78;100702.78;1808691;79;21031;-83
2022/02/12 11:03:12;;;;;;;4.05;3.52;;;;;;;2.30;96.26;100705.09;1789865;79;20980;-78
2022/02/12 11:05:41;;;;;;;6.17;4.78;;;;;;;2.34;95.98;100709.89;1808685;79;21020;-84
2022/02/12 11:08:10;;;;;;;8.45;4.25;;;;;;;2.37;95.67;100710.03;1790493;79;47289;-87
2022/02/12 11:10:38;;;;;;;5.40;3.98;;;;;;;2.41;95.70;100716.64;1786910;79;21094;-84
2022/02/12 11:13:07;;;;;;;3.58;2.98;;;;;;;2.45;95.41;100717.45;1807484;79;21036;-85
2022/02/12 11:15:34;;;;;;;4.47;3.08;;;;;;;2.52;95.12;100720.26;1804928;79;21106;-84
2022/02/12 11:18:06;;;;;;;4.30;3.17;;;;;;;2.58;95.22;100724.39;1807570;79;21548;-81
2022/02/12 11:20:35;;;;;;;10.68;4.22;;;;;;;2.64;94.91;100736.95;1796372;79;21071;-85
2022/02/12 11:23:27;;;;;;;4.50;3.08;;;;;;;2.62;94.34;100725.70;1783823;79;24675;-83
2022/02/12 11:25:55;;;;;;;9.20;3.52;;;;;;;2.61;94.25;100721.37;1807903;79;20998;-82
2022/02/12 11:28:31;;;;;;;4.90;4.17;;;;;;;2.60;93.77;100725.53;1789923;79;20959;-82
2022/02/12 11:31:22;;;;;;;6.03;4.28;;;;;;;2.61;93.85;100733.83;1809439;78;21002;-80
2022/02/12 11:34:09;;;;;;;12.68;4.35;;;;;;;2.63;94.00;100725.20;1780006;79;21610;-82
2022/02/12 11:36:36;;;;;;;11.70;4.70;;;;;;;2.69;94.12;100735.61;1777869;80;21114;-78
2022/02/12 11:39:13;;;;;;;7.15;3.47;;;;;;;2.72;93.22;100740.09;1779623;79;21468;-78
2022/02/12 11:41:42;;;;;;;9.48;4.00;;;;;;;2.78;93.11;100741.23;1788266;79;20970;-80